createdAt,value
2022-08-25T00:02:00.741Z,100.00
2022-08-25T00:04:31.197Z,100.00
2022-08-25T00:07:03.522Z,100.00
2022-08-25T00:09:32.869Z,100.00
2022-08-25T00:12:00.751Z,100.00
2022-08-25T00:14:32.793Z,100.00
2022-08-25T00:17:00.256Z,100.00
2022-08-25T00:19:32.148Z,100.00
2022-08-25T00:22:01.035Z,100.00
2022-08-25T00:24:29.672Z,100.00
2022-08-25T00:26:58.339Z,100.00
2022-08-25T00:29:27.086Z,100.00
2022-08-25T00:31:55.994Z,100.00
2022-08-25T00:34:33.055Z,100.00
2022-08-25T00:37:01.400Z,100.00
2022-08-25T00:39:28.832Z,100.00
2022-08-25T00:41:57.881Z,100.00
2022-08-25T00:44:27.926Z,100.00
2022-08-25T00:46:58.081Z,100.00
2022-08-25T00:49:42.812Z,100.00
2022-08-25T00:52:24.635Z,100.00
2022-08-25T00:55:09.360Z,100.00
2022-08-25T00:57:41.353Z,100.00
2022-08-25T01:00:26.014Z,100.00
2022-08-25T01:02:54.469Z,100.00
2022-08-25T01:05:22.244Z,100.00
2022-08-25T01:07:50.691Z,100.00
2022-08-25T01:10:20.481Z,100.00
2022-08-25T01:12:49.022Z,100.00
2022-08-25T01:15:16.903Z,100.00
2022-08-25T01:17:47.649Z,100.00
2022-08-25T01:20:16.582Z,100.00
2022-08-25T01:22:43.781Z,100.00
2022-08-25T01:25:42.459Z,100.00
2022-08-25T01:28:09.983Z,100.00
2022-08-25T01:30:38.299Z,100.00
2022-08-25T01:33:07.610Z,100.00
2022-08-25T01:35:36.170Z,100.00
2022-08-25T01:38:05.875Z,100.00
2022-08-25T01:40:33.734Z,100.00
2022-08-25T01:43:06.972Z,100.00
2022-08-25T01:45:35.576Z,100.00
2022-08-25T01:48:03.478Z,100.00
2022-08-25T01:50:32.000Z,100.00
2022-08-25T01:53:27.588Z,100.00
2022-08-25T01:56:09.579Z,100.00
2022-08-25T01:58:40.321Z,100.00
2022-08-25T02:01:12.800Z,100.00
2022-08-25T02:03:42.540Z,100.00
2022-08-25T02:06:13.025Z,100.00
2022-08-25T02:08:41.077Z,100.00
2022-08-25T02:11:13.878Z,100.00
2022-08-25T02:13:42.344Z,100.00
2022-08-25T02:16:11.335Z,100.00
2022-08-25T02:18:38.669Z,100.00
2022-08-25T02:21:06.308Z,100.00
2022-08-25T02:23:33.830Z,100.00
2022-08-25T02:26:01.311Z,100.00
2022-08-25T02:28:28.696Z,100.00
2022-08-25T02:31:01.067Z,100.00
2022-08-25T02:33:29.404Z,100.00
2022-08-25T02:36:00.794Z,100.00
2022-08-25T02:38:29.373Z,100.00
2022-08-25T02:40:57.755Z,100.00
2022-08-25T02:43:26.309Z,100.00
2022-08-25T02:45:55.654Z,100.00
2022-08-25T02:48:23.604Z,100.00
2022-08-25T02:50:53.072Z,100.00
2022-08-25T02:53:21.228Z,100.00
2022-08-25T02:55:48.566Z,100.00
2022-08-25T02:58:16.070Z,100.00
2022-08-25T03:00:43.889Z,100.00
2022-08-25T03:03:11.239Z,100.00
2022-08-25T03:05:38.724Z,100.00
2022-08-25T03:08:08.113Z,100.00
2022-08-25T03:10:35.761Z,100.00
2022-08-25T03:13:03.600Z,100.00
2022-08-25T03:15:31.597Z,100.00
2022-08-25T03:18:00.018Z,100.00
2022-08-25T03:20:28.663Z,100.00
2022-08-25T03:22:56.483Z,100.00
2022-08-25T03:25:49.961Z,100.00
2022-08-25T03:28:17.773Z,100.00
2022-08-25T03:30:45.413Z,100.00
2022-08-25T03:33:12.769Z,100.00
2022-08-25T03:35:41.439Z,100.00
2022-08-25T03:38:08.723Z,100.00
2022-08-25T03:40:36.059Z,100.00
2022-08-25T03:43:03.804Z,100.00
2022-08-25T03:45:31.629Z,100.00
2022-08-25T03:47:59.498Z,100.00
2022-08-25T03:50:27.170Z,100.00
2022-08-25T03:52:56.321Z,100.00
2022-08-25T03:55:25.660Z,100.00
2022-08-25T03:57:54.508Z,100.00
2022-08-25T04:00:23.843Z,100.00
2022-08-25T04:02:51.311Z,100.00
2022-08-25T04:05:20.353Z,100.00
2022-08-25T04:07:47.700Z,100.00
2022-08-25T04:10:15.579Z,100.00
2022-08-25T04:12:43.250Z,100.00
2022-08-25T04:15:11.141Z,100.00
2022-08-25T04:17:40.231Z,100.00
2022-08-25T04:20:10.134Z,100.00
2022-08-25T04:22:41.509Z,100.00
2022-08-25T04:25:12.953Z,100.00
2022-08-25T04:27:40.766Z,100.00
2022-08-25T04:30:08.669Z,100.00
2022-08-25T04:32:37.163Z,100.00
2022-08-25T04:35:05.539Z,100.00
2022-08-25T04:37:33.556Z,100.00
2022-08-25T04:40:01.039Z,100.00
2022-08-25T04:42:28.682Z,100.00
2022-08-25T04:44:56.282Z,100.00
2022-08-25T04:47:24.150Z,100.00
2022-08-25T04:49:51.434Z,100.00
2022-08-25T04:52:18.699Z,100.00
2022-08-25T04:54:46.969Z,100.00
2022-08-25T04:57:14.304Z,100.00
2022-08-25T04:59:41.664Z,100.00
2022-08-25T05:02:10.114Z,100.00
2022-08-25T05:04:38.295Z,100.00
2022-08-25T05:07:05.860Z,100.00
2022-08-25T05:09:34.023Z,100.00
2022-08-25T05:12:02.914Z,100.00
2022-08-25T05:14:32.463Z,100.00
2022-08-25T05:17:00.413Z,100.00
2022-08-25T05:19:27.924Z,100.00
2022-08-25T05:21:57.794Z,100.00
2022-08-25T05:24:26.850Z,100.00
2022-08-25T05:26:54.404Z,100.00
2022-08-25T05:29:21.928Z,100.00
2022-08-25T05:31:50.946Z,100.00
2022-08-25T05:34:19.761Z,100.00
2022-08-25T05:36:48.238Z,100.00
2022-08-25T05:39:15.793Z,100.00
2022-08-25T05:41:43.202Z,100.00
2022-08-25T05:44:12.561Z,100.00
2022-08-25T05:46:40.202Z,100.00
2022-08-25T05:49:07.760Z,100.00
2022-08-25T05:51:34.972Z,100.00
2022-08-25T05:54:03.768Z,100.00
2022-08-25T05:56:31.505Z,100.00
2022-08-25T05:58:58.949Z,100.00
2022-08-25T06:01:47.318Z,100.00
2022-08-25T06:04:16.729Z,100.00
2022-08-25T06:06:44.307Z,100.00
2022-08-25T06:09:12.455Z,100.00
2022-08-25T06:11:40.999Z,100.00
2022-08-25T06:14:10.142Z,100.00
2022-08-25T06:16:39.270Z,100.00
2022-08-25T06:19:08.716Z,100.00
2022-08-25T06:21:39.205Z,100.00
2022-08-25T06:24:12.049Z,100.00
2022-08-25T06:26:42.530Z,100.00
2022-08-25T06:29:09.929Z,100.00
2022-08-25T06:31:37.401Z,100.00
2022-08-25T06:34:06.267Z,100.00
2022-08-25T06:36:34.842Z,100.00
2022-08-25T06:39:02.259Z,100.00
2022-08-25T06:41:36.928Z,100.00
2022-08-25T06:44:05.818Z,100.00
2022-08-25T06:46:36.516Z,100.00
2022-08-25T06:49:07.345Z,100.00
2022-08-25T06:51:38.428Z,100.00
2022-08-25T06:54:07.648Z,100.00
2022-08-25T06:56:34.827Z,100.00
2022-08-25T06:59:06.051Z,100.00
2022-08-25T07:01:35.183Z,100.00
2022-08-25T07:04:07.560Z,100.00
2022-08-25T07:06:38.077Z,100.00
2022-08-25T07:09:07.299Z,100.00
2022-08-25T07:11:34.892Z,100.00
2022-08-25T07:14:04.716Z,100.00
2022-08-25T07:16:32.825Z,100.00
2022-08-25T07:19:01.234Z,100.00
2022-08-25T07:21:33.592Z,100.00
2022-08-25T07:24:06.862Z,100.00
2022-08-25T07:26:38.588Z,100.00
2022-08-25T07:29:13.318Z,100.00
2022-08-25T07:31:41.159Z,100.00
2022-08-25T07:34:28.380Z,100.00
2022-08-25T07:36:57.482Z,100.00
2022-08-25T07:39:26.472Z,100.00
2022-08-25T07:41:55.194Z,99.79
2022-08-25T07:44:23.199Z,99.56
2022-08-25T07:46:51.729Z,100.00
2022-08-25T07:49:23.520Z,100.00
2022-08-25T07:52:05.202Z,98.72
2022-08-25T07:54:38.051Z,99.54
2022-08-25T07:57:08.648Z,96.32
2022-08-25T07:59:40.886Z,93.86
2022-08-25T08:02:17.824Z,96.30
2022-08-25T08:04:49.859Z,94.34
2022-08-25T08:07:20.040Z,93.62
2022-08-25T08:09:53.104Z,91.25
2022-08-25T08:12:25.032Z,93.18
2022-08-25T08:14:52.724Z,90.05
2022-08-25T08:17:21.116Z,86.41
2022-08-25T08:19:49.029Z,88.08
2022-08-25T08:22:16.438Z,87.74
2022-08-25T08:24:54.834Z,84.11
2022-08-25T08:27:24.675Z,85.16
2022-08-25T08:29:53.795Z,87.42
2022-08-25T08:32:21.453Z,84.72
2022-08-25T08:34:53.188Z,84.44
2022-08-25T08:37:23.052Z,85.07
2022-08-25T08:39:52.630Z,85.12
2022-08-25T08:42:47.063Z,80.42
2022-08-25T08:45:49.665Z,82.95
2022-08-25T08:48:24.455Z,78.58
2022-08-25T08:51:26.439Z,79.93
2022-08-25T08:54:15.562Z,82.08
2022-08-25T08:56:48.163Z,81.05
2022-08-25T08:59:19.327Z,83.48
2022-08-25T09:01:52.496Z,80.60
2022-08-25T09:04:39.387Z,78.05
2022-08-25T09:07:20.783Z,81.79
2022-08-25T09:09:49.061Z,83.34
2022-08-25T09:12:25.579Z,83.14
2022-08-25T09:15:54.665Z,82.13
2022-08-25T09:18:57.806Z,83.08
2022-08-25T09:21:28.470Z,82.42
2022-08-25T09:23:59.569Z,78.08
2022-08-25T09:26:34.318Z,78.01
2022-08-25T09:29:06.530Z,80.83
2022-08-25T09:31:45.308Z,78.00
2022-08-25T09:34:25.250Z,81.97
2022-08-25T09:36:53.369Z,79.56
2022-08-25T09:39:21.381Z,78.62
2022-08-25T09:41:54.129Z,76.86
2022-08-25T09:44:27.423Z,83.43
2022-08-25T09:47:02.367Z,76.03
2022-08-25T09:49:43.133Z,79.97
2022-08-25T09:52:29.184Z,77.75
2022-08-25T09:55:00.090Z,75.24
2022-08-25T09:57:32.462Z,76.24
2022-08-25T10:00:20.167Z,75.96
2022-08-25T10:03:13.282Z,76.58
2022-08-25T10:06:20.509Z,76.97
2022-08-25T10:08:48.461Z,74.83
2022-08-25T10:11:38.491Z,71.03
2022-08-25T10:14:21.090Z,72.37
2022-08-25T10:16:50.235Z,67.67
2022-08-25T10:19:30.285Z,66.12
2022-08-25T10:22:07.658Z,62.08
2022-08-25T10:24:35.623Z,62.35
2022-08-25T10:27:40.772Z,60.63
2022-08-25T10:30:11.259Z,61.42
2022-08-25T10:32:57.181Z,58.24
2022-08-25T10:35:32.902Z,60.42
2022-08-25T10:38:21.745Z,57.27
2022-08-25T10:41:27.164Z,59.15
2022-08-25T10:44:27.892Z,59.29
2022-08-25T10:47:03.240Z,56.72
2022-08-25T10:49:46.801Z,54.47
2022-08-25T10:52:23.435Z,47.93
2022-08-25T10:55:02.435Z,42.84
2022-08-25T10:57:39.130Z,51.53
2022-08-25T11:00:22.689Z,52.86
2022-08-25T11:03:11.021Z,51.40
2022-08-25T11:06:04.611Z,47.20
2022-08-25T11:08:40.191Z,45.84
2022-08-25T11:11:21.785Z,46.37
2022-08-25T11:14:05.712Z,48.74
2022-08-25T11:16:46.812Z,48.00
2022-08-25T11:19:24.238Z,43.48
2022-08-25T11:22:12.208Z,33.39
2022-08-25T11:24:40.667Z,33.33
2022-08-25T11:27:14.644Z,33.93
2022-08-25T11:29:53.448Z,32.59
2022-08-25T11:32:24.828Z,34.53
2022-08-25T11:34:53.488Z,32.17
2022-08-25T11:37:26.935Z,33.07
2022-08-25T11:39:57.533Z,30.17
2022-08-25T11:42:48.520Z,33.18
2022-08-25T11:45:22.111Z,31.23
2022-08-25T11:47:59.518Z,30.04
2022-08-25T11:50:30.074Z,28.92
2022-08-25T11:53:01.453Z,30.41
2022-08-25T11:55:35.178Z,29.86
2022-08-25T11:58:53.263Z,28.58
2022-08-25T12:01:40.093Z,30.47
2022-08-25T12:04:37.812Z,29.80
2022-08-25T12:07:20.131Z,30.53
2022-08-25T12:09:50.574Z,29.62
2022-08-25T12:12:48.879Z,31.00
2022-08-25T12:15:19.752Z,31.61
2022-08-25T12:18:09.024Z,29.85
2022-08-25T12:20:55.549Z,29.26
2022-08-25T12:23:44.990Z,29.22
2022-08-25T12:26:36.931Z,30.50
2022-08-25T12:29:25.960Z,30.80
2022-08-25T12:32:38.790Z,28.47
2022-08-25T12:35:32.333Z,31.01
2022-08-25T12:38:04.984Z,30.28
2022-08-25T12:40:37.358Z,31.67
2022-08-25T12:43:10.509Z,30.43
2022-08-25T12:45:41.263Z,29.53
2022-08-25T12:48:43.760Z,29.54
2022-08-25T12:51:36.051Z,29.60
2022-08-25T12:54:41.264Z,29.26
2022-08-25T12:57:42.274Z,27.49
2022-08-25T13:00:22.720Z,28.47
2022-08-25T13:03:10.796Z,28.26
2022-08-25T13:06:01.810Z,30.00
2022-08-25T13:08:48.644Z,28.48
2022-08-25T13:11:35.521Z,28.98
2022-08-25T13:14:26.764Z,27.74
2022-08-25T13:17:01.411Z,29.40
2022-08-25T13:19:35.303Z,29.59
2022-08-25T13:22:16.104Z,29.39
2022-08-25T13:24:47.461Z,28.14
2022-08-25T13:27:30.567Z,28.21
2022-08-25T13:30:03.803Z,27.76
2022-08-25T13:32:35.275Z,29.65
2022-08-25T13:35:20.403Z,28.42
2022-08-25T13:37:48.939Z,29.69
2022-08-25T13:40:43.331Z,28.95
2022-08-25T13:43:14.269Z,28.50
2022-08-25T13:45:47.768Z,30.23
2022-08-25T13:48:39.453Z,29.12
2022-08-25T13:51:21.516Z,29.63
2022-08-25T13:53:54.517Z,28.57
2022-08-25T13:56:25.779Z,30.00
2022-08-25T13:58:54.342Z,30.64
2022-08-25T14:01:48.216Z,28.25
2022-08-25T14:04:39.022Z,28.74
2022-08-25T14:07:21.216Z,29.09
2022-08-25T14:10:04.459Z,28.44
2022-08-25T14:12:37.739Z,29.13
2022-08-25T14:15:18.605Z,30.66
2022-08-25T14:18:08.394Z,29.43
2022-08-25T14:20:37.327Z,29.49
2022-08-25T14:23:12.907Z,28.62
2022-08-25T14:25:47.286Z,29.31
2022-08-25T14:28:19.905Z,28.80
2022-08-25T14:30:51.676Z,29.19
2022-08-25T14:33:23.726Z,29.62
2022-08-25T14:35:53.764Z,30.17
2022-08-25T14:38:22.959Z,29.39
2022-08-25T14:40:51.221Z,30.09
2022-08-25T14:43:23.858Z,29.77
2022-08-25T14:45:57.914Z,28.64
2022-08-25T14:48:29.670Z,29.61
2022-08-25T14:50:59.193Z,30.36
2022-08-25T14:53:27.854Z,30.26
2022-08-25T14:55:58.848Z,29.10
2022-08-25T14:58:28.000Z,30.90
2022-08-25T15:01:03.289Z,29.70
2022-08-25T15:03:33.496Z,31.23
2022-08-25T15:06:01.465Z,30.93
2022-08-25T15:08:47.588Z,31.25
2022-08-25T15:11:15.233Z,31.06
2022-08-25T15:13:49.370Z,31.90
2022-08-25T15:16:35.071Z,32.47
2022-08-25T15:19:06.976Z,30.55
2022-08-25T15:21:36.277Z,30.49
2022-08-25T15:24:05.675Z,30.02
2022-08-25T15:26:36.218Z,30.12
2022-08-25T15:29:04.050Z,31.98
2022-08-25T15:31:31.915Z,30.51
2022-08-25T15:34:00.731Z,31.79
2022-08-25T15:36:28.470Z,32.72
2022-08-25T15:38:56.125Z,31.31
2022-08-25T15:41:27.755Z,30.92
2022-08-25T15:43:56.848Z,31.19
2022-08-25T15:46:25.891Z,30.40
2022-08-25T15:51:20.995Z,32.34
2022-08-25T15:53:48.939Z,29.92
2022-08-25T15:56:26.417Z,31.39
2022-08-25T15:58:55.732Z,30.87
2022-08-25T16:01:25.886Z,30.75
2022-08-25T16:03:54.370Z,30.51
2022-08-25T16:06:22.048Z,31.20
2022-08-25T16:08:49.491Z,32.58
2022-08-25T16:11:22.727Z,32.68
2022-08-25T16:13:51.723Z,31.75
2022-08-25T16:16:21.081Z,31.93
2022-08-25T16:18:48.852Z,31.52
2022-08-25T16:21:21.046Z,30.55
2022-08-25T16:23:48.994Z,31.13
2022-08-25T16:26:17.262Z,31.81
2022-08-25T16:28:45.360Z,31.51
2022-08-25T16:31:15.132Z,32.32
2022-08-25T16:33:44.698Z,32.14
2022-08-25T16:36:21.559Z,32.00
2022-08-25T16:38:50.300Z,33.19
2022-08-25T16:41:24.919Z,32.37
2022-08-25T16:43:52.606Z,33.08
2022-08-25T16:46:21.716Z,33.06
2022-08-25T16:48:51.412Z,34.08
2022-08-25T16:51:22.715Z,33.77
2022-08-25T16:54:18.553Z,34.48
2022-08-25T16:56:54.694Z,35.13
2022-08-25T16:59:23.438Z,35.14
2022-08-25T17:01:51.382Z,35.63
2022-08-25T17:04:18.878Z,35.95
2022-08-25T17:06:49.334Z,36.27
2022-08-25T17:09:23.925Z,35.91
2022-08-25T17:11:54.567Z,37.65
2022-08-25T17:14:22.418Z,37.20
2022-08-25T17:16:54.822Z,38.22
2022-08-25T17:19:23.988Z,38.46
2022-08-25T17:21:52.411Z,38.76
2022-08-25T17:24:21.050Z,39.24
2022-08-25T17:26:51.860Z,40.34
2022-08-25T17:29:19.410Z,41.81
2022-08-25T17:31:48.439Z,41.13
2022-08-25T17:34:16.928Z,42.82
2022-08-25T17:36:48.677Z,42.46
2022-08-25T17:39:18.466Z,43.52
2022-08-25T17:41:46.233Z,43.47
2022-08-25T17:44:14.014Z,44.11
2022-08-25T17:46:47.607Z,47.06
2022-08-25T17:49:17.143Z,45.48
2022-08-25T17:51:45.097Z,48.49
2022-08-25T17:54:13.146Z,47.79
2022-08-25T17:56:41.307Z,51.11
2022-08-25T17:59:09.279Z,52.45
2022-08-25T18:01:40.140Z,55.13
2022-08-25T18:04:14.280Z,55.91
2022-08-25T18:06:46.553Z,60.41
2022-08-25T18:09:15.274Z,65.56
2022-08-25T18:11:42.891Z,65.10
2022-08-25T18:14:11.552Z,62.42
2022-08-25T18:16:39.302Z,64.79
2022-08-25T18:19:09.868Z,68.44
2022-08-25T18:21:37.927Z,69.29
2022-08-25T18:24:06.795Z,73.47
2022-08-25T18:26:35.134Z,72.80
2022-08-25T18:29:03.110Z,71.78
2022-08-25T18:31:31.183Z,71.71
2022-08-25T18:33:59.699Z,69.84
2022-08-25T18:36:27.474Z,71.64
2022-08-25T18:39:14.131Z,71.72
2022-08-25T18:41:42.796Z,73.04
2022-08-25T18:44:12.681Z,75.45
2022-08-25T18:46:45.438Z,77.74
2022-08-25T18:49:16.005Z,78.91
2022-08-25T18:51:44.893Z,82.21
2022-08-25T18:54:22.816Z,83.82
2022-08-25T18:56:54.811Z,84.22
2022-08-25T18:59:23.775Z,84.64
2022-08-25T19:01:53.069Z,89.01
2022-08-25T19:04:20.690Z,89.35
2022-08-25T19:06:56.318Z,89.96
2022-08-25T19:09:23.721Z,89.61
2022-08-25T19:11:52.907Z,89.16
2022-08-25T19:14:22.352Z,90.41
2022-08-25T19:16:51.908Z,91.51
2022-08-25T19:19:20.273Z,92.59
2022-08-25T19:21:48.430Z,92.26
2022-08-25T19:24:18.609Z,91.39
2022-08-25T19:26:46.259Z,92.92
2022-08-25T19:29:15.946Z,92.55
2022-08-25T19:31:46.974Z,92.23
2022-08-25T19:34:20.827Z,92.73
2022-08-25T19:36:48.941Z,93.07
2022-08-25T19:39:16.764Z,94.12
2022-08-25T19:41:45.598Z,95.83
2022-08-25T19:44:13.674Z,97.59
2022-08-25T19:46:43.384Z,97.25
2022-08-25T19:49:14.626Z,96.78
2022-08-25T19:51:50.627Z,97.93
2022-08-25T19:54:27.459Z,98.58
2022-08-25T19:56:55.804Z,99.20
2022-08-25T19:59:25.824Z,99.78
2022-08-25T20:01:54.017Z,99.59
2022-08-25T20:04:24.149Z,98.93
2022-08-25T20:06:55.436Z,98.89
2022-08-25T20:09:39.545Z,99.21
2022-08-25T20:12:12.022Z,99.28
2022-08-25T20:14:40.030Z,99.98
2022-08-25T20:17:23.586Z,99.46
2022-08-25T20:19:55.494Z,99.51
2022-08-25T20:22:26.385Z,98.63
2022-08-25T20:24:58.186Z,98.24
2022-08-25T20:27:35.548Z,99.60
2022-08-25T20:30:07.141Z,100.00
2022-08-25T20:32:36.053Z,100.00
2022-08-25T20:35:06.006Z,100.00
2022-08-25T20:37:36.761Z,100.00
2022-08-25T20:40:05.498Z,100.00
2022-08-25T20:42:33.248Z,100.00
2022-08-25T20:45:01.014Z,100.00
2022-08-25T20:47:28.872Z,100.00
2022-08-25T20:50:00.401Z,100.00
2022-08-25T20:52:31.277Z,100.00
2022-08-25T20:54:58.632Z,100.00
2022-08-25T20:57:26.591Z,100.00
2022-08-25T20:59:57.646Z,100.00
2022-08-25T21:02:26.294Z,100.00
2022-08-25T21:04:54.553Z,100.00
2022-08-25T21:07:25.847Z,100.00
2022-08-25T21:09:53.668Z,100.00
2022-08-25T21:12:21.149Z,100.00
2022-08-25T21:14:49.213Z,100.00
2022-08-25T21:17:19.245Z,100.00
2022-08-25T21:22:16.766Z,100.00
2022-08-25T21:24:45.146Z,100.00
2022-08-25T21:27:12.748Z,100.00
2022-08-25T21:29:54.409Z,100.00
2022-08-25T21:32:24.193Z,100.00
2022-08-25T21:34:54.098Z,100.00
2022-08-25T21:37:22.153Z,100.00
2022-08-25T21:39:50.389Z,100.00
2022-08-25T21:42:20.412Z,100.00
2022-08-25T21:44:50.681Z,100.00
2022-08-25T21:47:20.981Z,100.00
2022-08-25T21:49:49.993Z,100.00
2022-08-25T21:52:18.308Z,100.00
2022-08-25T21:54:46.128Z,100.00
2022-08-25T21:57:13.949Z,100.00
2022-08-25T21:59:43.449Z,100.00
2022-08-25T22:02:13.360Z,100.00
2022-08-25T22:04:42.860Z,100.00
2022-08-25T22:07:11.169Z,100.00
2022-08-25T22:09:40.183Z,100.00
2022-08-25T22:12:08.370Z,100.00
2022-08-25T22:14:36.984Z,100.00
2022-08-25T22:17:06.982Z,100.00
2022-08-25T22:19:37.030Z,100.00
2022-08-25T22:22:06.916Z,100.00
2022-08-25T22:24:34.327Z,100.00
2022-08-25T22:27:02.521Z,100.00
2022-08-25T22:29:30.646Z,100.00
2022-08-25T22:31:59.975Z,100.00
2022-08-25T22:34:34.634Z,100.00
2022-08-25T22:37:04.061Z,100.00
2022-08-25T22:39:34.433Z,100.00
2022-08-25T22:42:03.398Z,100.00
2022-08-25T22:44:30.990Z,100.00
2022-08-25T22:46:58.657Z,100.00
2022-08-25T22:49:28.774Z,100.00
2022-08-25T22:51:56.343Z,100.00
2022-08-25T22:54:25.722Z,100.00
2022-08-25T22:56:53.648Z,100.00
2022-08-25T22:59:22.196Z,100.00
2022-08-25T23:01:52.389Z,100.00
2022-08-25T23:04:20.179Z,100.00
2022-08-25T23:06:47.530Z,100.00
2022-08-25T23:09:15.113Z,100.00
2022-08-25T23:11:43.399Z,100.00
2022-08-25T23:14:11.518Z,100.00
2022-08-25T23:16:43.282Z,100.00
2022-08-25T23:19:13.867Z,100.00
2022-08-25T23:22:02.122Z,100.00
2022-08-25T23:24:30.981Z,100.00
2022-08-25T23:27:00.963Z,100.00
2022-08-25T23:29:29.243Z,100.00
2022-08-25T23:31:57.991Z,100.00
2022-08-25T23:34:26.868Z,100.00
2022-08-25T23:36:56.722Z,100.00
2022-08-25T23:39:24.328Z,100.00
2022-08-25T23:41:52.514Z,100.00
2022-08-25T23:44:21.459Z,100.00
2022-08-25T23:46:49.601Z,100.00
2022-08-25T23:49:19.419Z,100.00
2022-08-25T23:51:50.253Z,100.00
2022-08-25T23:54:20.637Z,100.00
2022-08-25T23:56:51.879Z,100.00
2022-08-25T23:59:23.967Z,100.00
